createdAt,value
2024-05-09T00:03:12.435Z,13.8
2024-05-09T00:43:13.148Z,13.7
2024-05-09T01:03:14.070Z,13.7
2024-05-09T01:23:12.130Z,13.6
2024-05-09T01:43:12.348Z,13.5
2024-05-09T02:03:15.072Z,13.5
2024-05-09T02:23:12.264Z,13.4
2024-05-09T02:43:13.059Z,13.3
2024-05-09T03:03:14.321Z,13.3
2024-05-09T03:23:11.982Z,13.2
2024-05-09T04:03:13.212Z,13.1
2024-05-09T04:23:12.258Z,13
2024-05-09T04:43:11.932Z,12.9
2024-05-09T05:03:14.602Z,12.9
2024-05-09T05:23:11.964Z,12.8
2024-05-09T05:43:11.850Z,12.8
2024-05-09T06:03:12.628Z,12.8
2024-05-09T06:23:12.536Z,12.8
2024-05-09T07:03:13.322Z,12.8
2024-05-09T07:23:20.128Z,12.8
2024-05-09T07:43:11.853Z,12.9
2024-05-09T08:03:11.873Z,12.9
2024-05-09T08:23:11.742Z,12.9
2024-05-09T08:43:12.927Z,13
2024-05-09T09:03:11.818Z,13.1
2024-05-09T09:23:11.776Z,13.2
2024-05-09T09:43:11.865Z,13.2
2024-05-09T10:03:11.813Z,13.3
2024-05-09T10:23:11.730Z,13.4
2024-05-09T11:03:11.672Z,13.5
2024-05-09T11:23:11.699Z,13.6
2024-05-09T11:43:11.765Z,13.7
2024-05-09T12:03:11.750Z,13.8
2024-05-09T12:23:11.670Z,13.8
2024-05-09T12:43:12.179Z,13.9
2024-05-09T13:03:11.915Z,14
2024-05-09T13:23:11.654Z,14.1
2024-05-09T14:03:11.712Z,14.3
2024-05-09T15:03:11.749Z,14.7
2024-05-09T15:43:11.981Z,15.2
2024-05-09T16:03:12.745Z,15.4
2024-05-09T17:43:11.691Z,15.5
2024-05-09T18:03:12.651Z,15.5
2024-05-09T18:23:11.525Z,15.5
2024-05-09T18:43:11.620Z,15.4
2024-05-09T19:03:13.533Z,15.4
2024-05-09T19:23:11.839Z,15.4
2024-05-09T19:43:11.420Z,15.3
2024-05-09T20:23:11.633Z,15.2
2024-05-09T21:03:12.350Z,15.1
2024-05-09T21:23:11.562Z,15
2024-05-09T22:03:12.163Z,14.9
2024-05-09T22:43:11.387Z,14.7
2024-05-09T23:03:11.469Z,14.7
2024-05-09T23:23:12.108Z,14.6
2024-05-09T23:43:12.212Z,14.5
